ENKR

Details ICAO ENKR (KKN)
Name HOYBUKTMOEN
Region Norway
Timezone Europe/Oslo (UTC+1.0)
Plans Departing 37
Arriving 34
Stats Elevation 283 ft / 86 m (AMSL)
Location 69.725215° 29.890800°
Runways 1
Magnetic Variation 14.945° E
Sunrise Unknown / Unknown
Sunset Unknown / Unknown
Advertisement - Login to hide

Runways

ID Width Length Bearing (true) Bearing (mag) Surface Threshold Offset Overrun Length
06 148 ft / 45 m 6,192 ft / 1,887 m 69.03° 54.08° Asphalt 184 ft / 56 m 0 ft / 0 m
24 148 ft / 45 m 6,192 ft / 1,887 m 249.07° 234.12° Asphalt 1,450 ft / 442 m 0 ft / 0 m

Approach Navaids

Runway Type Ident Frequency Range Bearing (true) Bearing (mag) Slope Elevation
24 Localiser KR 110.30 MHz 18 nm / 33 km 249.76° 234.81° - 283 ft / 86 m (AMSL)
24 Glidescope KR 110.30 MHz 10 nm / 19 km 249.05° 234.11° 3.40° 283 ft / 86 m (AMSL)

Map

Weather


0- 5 10 15 20 25 30 35+ Temperature / ° C

Clouds and Precipitation
Forecast for 2017-12-14 12:00 UTC. Updated 37 minutes ago

Ground ~20,000 ft ~40,000 ft Winds

METAR

ENKR 140720Z 23006KT CAVOK M05/M07 Q0977 RMK WIND 731FT 24018KT

TAF

Not found

Frequencies

Recorded 118.02 MHz ATIS
Tower 120.35 MHz KIRKENES TWR
Tower 118.10 MHz KIRKENES TWR
Tower 122.10 MHz KIRKENES TWR
Warning: Do not use this data for real-world aviation or navigation. No guarantee of current accuracy is given.